Time;durP1;ratioP1;P1;durP2;ratioP2;P2;SDS_P1;SDS_P2;PMS_P1;PMS_P2;Temp;Humidity;BMP_temperature;BMP_pressure;BME280_temperature;BME280_humidity;BME280_pressure;Samples;Min_cycle;Max_cycle;Signal;HPM_P1;HPM_P2
2022/04/20 17:53:32;;;;;;;;;16.25;15.50;;;;;;;;5134312;27;263498;-78
2022/04/20 17:55:58;;;;;;;;;13.25;13.25;;;;;;;;5129715;27;25603;-78
2022/04/20 17:58:23;;;;;;;;;15.25;13.00;;;;;;;;5154510;27;11486;-77
2022/04/20 18:00:48;;;;;;;;;15.75;14.25;;;;;;;;5154134;27;11596;-76
2022/04/20 18:03:19;;;;;;;;;13.75;13.00;;;;;;;;5155095;27;10889;-86
2022/04/20 18:05:47;;;;;;;;;13.75;13.00;;;;;;;;5153150;27;13254;-86
2022/04/20 18:08:12;;;;;;;;;13.75;13.25;;;;;;;;5135341;27;11469;-87
2022/04/20 18:10:38;;;;;;;;;13.00;13.00;;;;;;;;5136200;27;11485;-88
2022/04/20 18:13:03;;;;;;;;;16.00;14.75;;;;;;;;5136843;27;11608;-87
2022/04/20 18:15:28;;;;;;;;;13.00;12.25;;;;;;;;5135729;27;14469;-90
2022/04/20 18:17:54;;;;;;;;;13.75;12.75;;;;;;;;5135306;27;10849;-82
2022/04/20 18:20:19;;;;;;;;;10.50;9.50;;;;;;;;5136384;27;8936;-82
2022/04/20 18:22:45;;;;;;;;;13.50;13.50;;;;;;;;5134566;27;23091;-78
2022/04/20 18:25:11;;;;;;;;;15.50;13.00;;;;;;;;5154546;27;22642;-73
2022/04/20 18:27:37;;;;;;;;;12.50;12.00;;;;;;;;5155612;27;11611;-71
2022/04/20 18:30:02;;;;;;;;;15.00;13.25;;;;;;;;5132889;27;8903;-72
2022/04/20 18:32:27;;;;;;;;;11.00;11.00;;;;;;;;5136673;27;12047;-71
2022/04/20 18:34:53;;;;;;;;;11.25;9.00;;;;;;;;5145491;27;12829;-69
2022/04/20 18:37:18;;;;;;;;;9.00;7.75;;;;;;;;5149708;27;21540;-71
2022/04/20 18:39:44;;;;;;;;;11.00;9.75;;;;;;;;5145156;27;22188;-70
2022/04/20 18:42:09;;;;;;;;;15.00;13.00;;;;;;;;5146291;27;22571;-78
2022/04/20 18:44:35;;;;;;;;;14.50;14.00;;;;;;;;5144008;27;21986;-80
2022/04/20 18:47:00;;;;;;;;;15.00;14.00;;;;;;;;5145034;27;11461;-76
2022/04/20 18:49:26;;;;;;;;;16.50;13.00;;;;;;;;5144300;27;8905;-76
2022/04/20 18:51:51;;;;;;;;;14.25;12.00;;;;;;;;5145851;27;10325;-74
2022/04/20 18:59:45;;;;;;;;;16.50;13.25;;;;;;;;5136662;27;11441;-78
2022/04/20 19:02:11;;;;;;;;;15.00;13.00;;;;;;;;5135937;27;11533;-76
2022/04/20 19:04:48;;;;;;;;;15.25;14.00;;;;;;;;5123645;27;12081;-77
2022/04/20 19:07:19;;;;;;;;;17.25;14.75;;;;;;;;5133992;27;9616;-77
2022/04/20 19:09:44;;;;;;;;;18.00;15.75;;;;;;;;5123011;27;14067;-78
2022/04/20 19:12:10;;;;;;;;;16.50;13.75;;;;;;;;5122828;27;12325;-77
2022/04/20 19:14:36;;;;;;;;;15.00;13.75;;;;;;;;5142651;27;11555;-76
2022/04/20 19:17:01;;;;;;;;;16.25;15.00;;;;;;;;5143235;27;8919;-76
2022/04/20 19:19:27;;;;;;;;;14.50;14.00;;;;;;;;5142443;27;11530;-76
2022/04/20 19:21:52;;;;;;;;;15.25;12.50;;;;;;;;5142335;27;10424;-74
2022/04/20 19:24:17;;;;;;;;;16.00;14.50;;;;;;;;5142657;27;11363;-74
2022/04/20 19:26:44;;;;;;;;;12.00;12.00;;;;;;;;5142622;27;10668;-85
2022/04/20 19:29:10;;;;;;;;;20.00;13.25;;;;;;;;5142849;27;11943;-76
2022/04/20 19:31:36;;;;;;;;;14.50;14.25;;;;;;;;5143006;27;13795;-75
2022/04/20 19:34:01;;;;;;;;;16.75;15.75;;;;;;;;5142584;27;12353;-76
2022/04/20 19:36:26;;;;;;;;;15.50;15.00;;;;;;;;5142693;27;11539;-74
2022/04/20 19:38:52;;;;;;;;;17.25;16.50;;;;;;;;5143250;27;11567;-75
2022/04/20 19:41:17;;;;;;;;;17.25;16.00;;;;;;;;5142511;27;13047;-82
2022/04/20 19:43:44;;;;;;;;;13.00;13.00;;;;;;;;5124450;27;8818;-85
2022/04/20 19:46:10;;;;;;;;;22.00;18.75;;;;;;;;5143090;27;10864;-84
2022/04/20 19:48:35;;;;;;;;;31.75;27.50;;;;;;;;5142154;27;13284;-77
2022/04/20 19:51:00;;;;;;;;;49.00;40.00;;;;;;;;5142561;27;13195;-75
2022/04/20 19:53:28;;;;;;;;;64.33;52.00;;;;;;;;5141622;27;13306;-75
2022/04/20 19:55:54;;;;;;;;;64.00;50.33;;;;;;;;5124540;27;12516;-73
2022/04/20 19:58:19;;;;;;;;;46.00;38.75;;;;;;;;5140713;27;13070;-74
2022/04/20 20:00:44;;;;;;;;;45.75;38.00;;;;;;;;5140804;27;12570;-72
2022/04/20 20:03:12;;;;;;;;;37.50;33.00;;;;;;;;5142386;27;11387;-80
2022/04/20 20:05:37;;;;;;;;;36.50;34.75;;;;;;;;5142517;27;12505;-78
2022/04/20 20:08:03;;;;;;;;;19.00;18.25;;;;;;;;5142155;27;11902;-78
2022/04/20 20:10:28;;;;;;;;;16.00;14.25;;;;;;;;5142224;27;12457;-77
2022/04/20 20:12:54;;;;;;;;;15.75;14.00;;;;;;;;5141978;27;9312;-77
2022/04/20 20:15:20;;;;;;;;;18.25;15.00;;;;;;;;5140581;27;12411;-77
2022/04/20 20:17:46;;;;;;;;;16.75;15.75;;;;;;;;5142610;27;9900;-76
2022/04/20 20:20:12;;;;;;;;;18.00;14.50;;;;;;;;5142634;27;12013;-78
2022/04/20 20:22:37;;;;;;;;;18.00;15.75;;;;;;;;5141586;27;11487;-78
2022/04/20 20:30:31;;;;;;;;;15.25;15.25;;;;;;;;5139337;27;14213;-84
2022/04/20 20:32:56;;;;;;;;;19.50;19.00;;;;;;;;5140689;27;11566;-86
2022/04/20 20:35:21;;;;;;;;;12.25;12.25;;;;;;;;5141605;27;11370;-85
2022/04/20 20:37:47;;;;;;;;;15.00;14.25;;;;;;;;5140545;27;11775;-84
2022/04/20 20:40:12;;;;;;;;;15.00;15.00;;;;;;;;5122979;27;11024;-79
2022/04/20 20:42:38;;;;;;;;;19.75;17.00;;;;;;;;5122847;27;9218;-77
2022/04/20 20:45:04;;;;;;;;;19.00;14.75;;;;;;;;5140997;27;10498;-79
2022/04/20 20:47:30;;;;;;;;;21.50;15.75;;;;;;;;5140828;27;10589;-80
2022/04/20 20:52:39;;;;;;;;;14.00;14.00;;;;;;;;5138623;27;12225;-81
2022/04/20 20:55:06;;;;;;;;;17.00;15.25;;;;;;;;5139398;27;11500;-80
2022/04/20 20:57:32;;;;;;;;;18.50;15.00;;;;;;;;5121249;27;13634;-78
2022/04/20 20:59:57;;;;;;;;;18.75;17.00;;;;;;;;5139942;27;12359;-78
2022/04/20 21:02:22;;;;;;;;;17.00;17.00;;;;;;;;5139926;27;9494;-79
2022/04/20 21:04:48;;;;;;;;;5.75;4.75;;;;;;;;5138634;27;9053;-78
2022/04/20 21:07:13;;;;;;;;;17.50;16.75;;;;;;;;5139456;27;23268;-78
2022/04/20 21:09:38;;;;;;;;;17.00;16.25;;;;;;;;5134909;27;22241;-82
2022/04/20 21:12:06;;;;;;;;;17.25;15.50;;;;;;;;5128203;27;8796;-82
2022/04/20 21:14:32;;;;;;;;;16.25;15.00;;;;;;;;5101049;28;12969;-83
2022/04/20 21:16:57;;;;;;;;;15.50;15.00;;;;;;;;5100570;28;13430;-83
2022/04/20 21:19:22;;;;;;;;;19.00;17.75;;;;;;;;5119493;28;8959;-83
2022/04/20 21:23:11;;;;;;;;;15.00;13.00;;;;;;;;5169245;27;87003;-78
2022/04/20 21:25:37;;;;;;;;;15.50;14.50;;;;;;;;5177780;27;22802;-75
2022/04/20 21:28:03;;;;;;;;;19.50;13.25;;;;;;;;5165252;27;11634;-75
2022/04/20 21:30:29;;;;;;;;;16.00;13.25;;;;;;;;5165230;27;11474;-76
2022/04/20 21:32:55;;;;;;;;;11.50;11.50;;;;;;;;5167598;27;11456;-75
2022/04/20 21:35:21;;;;;;;;;17.00;14.25;;;;;;;;5164975;27;12745;-77
2022/04/20 21:37:47;;;;;;;;;10.00;10.00;;;;;;;;5164923;27;11521;-74
2022/04/20 21:40:12;;;;;;;;;19.00;17.75;;;;;;;;5165093;27;11409;-75
2022/04/20 21:42:38;;;;;;;;;15.25;13.25;;;;;;;;5164773;27;11359;-74
2022/04/20 21:45:04;;;;;;;;;16.75;14.00;;;;;;;;5166327;27;10346;-76
2022/04/20 21:47:30;;;;;;;;;17.75;14.50;;;;;;;;5175573;27;11454;-75
2022/04/20 21:49:55;;;;;;;;;14.75;13.25;;;;;;;;5177419;27;11535;-76
2022/04/20 21:52:20;;;;;;;;;18.00;15.75;;;;;;;;5177111;27;11359;-74
2022/04/20 21:54:46;;;;;;;;;17.00;16.00;;;;;;;;5177500;27;10606;-81
2022/04/20 21:57:11;;;;;;;;;17.50;15.25;;;;;;;;5177949;27;11514;-76
2022/04/20 21:59:37;;;;;;;;;14.75;12.00;;;;;;;;5177163;27;10540;-75
2022/04/20 22:10:17;;;;;;;;;15.50;14.00;;;;;;;;5176851;27;11433;-74
2022/04/20 22:12:42;;;;;;;;;14.00;14.00;;;;;;;;5175722;27;13468;-75
2022/04/20 22:15:08;;;;;;;;;13.00;13.00;;;;;;;;5177617;27;8858;-76
2022/04/20 22:17:33;;;;;;;;;12.50;12.00;;;;;;;;5177462;27;9895;-74
2022/04/20 22:19:59;;;;;;;;;11.75;11.25;;;;;;;;5175578;27;10874;-76
2022/04/20 22:22:24;;;;;;;;;16.00;16.00;;;;;;;;5176926;27;11390;-73
2022/04/20 22:24:50;;;;;;;;;13.00;12.75;;;;;;;;5176473;27;11374;-75
2022/04/20 22:27:15;;;;;;;;;20.00;12.00;;;;;;;;5174943;27;11850;-76
2022/04/20 22:29:40;;;;;;;;;13.75;13.00;;;;;;;;5176692;27;13330;-74
2022/04/20 22:32:06;;;;;;;;;17.50;15.00;;;;;;;;5176323;27;12232;-75
2022/04/20 22:34:32;;;;;;;;;15.25;13.00;;;;;;;;5163164;27;10389;-75
2022/04/20 22:36:57;;;;;;;;;15.00;12.75;;;;;;;;5161286;27;12647;-74
2022/04/20 22:39:23;;;;;;;;;14.25;12.00;;;;;;;;5163179;27;11477;-74
2022/04/20 22:41:48;;;;;;;;;13.50;12.00;;;;;;;;5162803;27;11523;-74
2022/04/20 22:44:17;;;;;;;;;18.75;14.00;;;;;;;;5162474;27;9400;-76
2022/04/20 22:46:44;;;;;;;;;15.50;15.50;;;;;;;;5162577;27;11070;-75
2022/04/20 22:49:10;;;;;;;;;16.00;14.25;;;;;;;;5162669;27;12652;-76
2022/04/20 22:51:38;;;;;;;;;14.50;13.25;;;;;;;;5161641;27;11927;-73
2022/04/20 22:54:03;;;;;;;;;20.75;15.00;;;;;;;;5162402;27;11552;-74
2022/04/20 22:56:29;;;;;;;;;19.25;13.75;;;;;;;;5162113;27;13440;-74
2022/04/20 22:58:54;;;;;;;;;15.25;15.00;;;;;;;;5161853;27;13630;-74
2022/04/20 23:01:20;;;;;;;;;13.50;13.00;;;;;;;;5161829;27;11760;-73
2022/04/20 23:03:45;;;;;;;;;17.00;14.00;;;;;;;;5161892;27;10306;-76
2022/04/20 23:06:10;;;;;;;;;17.25;15.25;;;;;;;;5161725;27;10954;-73
2022/04/20 23:08:35;;;;;;;;;15.00;15.00;;;;;;;;5161921;27;10505;-74
2022/04/20 23:11:01;;;;;;;;;16.25;12.75;;;;;;;;5162771;27;11496;-74
2022/04/20 23:13:26;;;;;;;;;13.00;13.00;;;;;;;;5160553;27;11971;-74
2022/04/20 23:15:51;;;;;;;;;17.50;16.75;;;;;;;;5162331;27;11335;-75
2022/04/20 23:18:17;;;;;;;;;17.25;16.00;;;;;;;;5162133;27;11670;-74
2022/04/20 23:20:42;;;;;;;;;16.50;16.50;;;;;;;;5162290;27;8785;-73
2022/04/20 23:23:07;;;;;;;;;16.00;16.00;;;;;;;;5161911;27;11530;-74
2022/04/20 23:28:31;;;;;;;;;20.50;15.50;;;;;;;;5162556;27;8881;-74
2022/04/20 23:31:00;;;;;;;;;17.00;16.00;;;;;;;;5161787;27;13368;-75
2022/04/20 23:33:25;;;;;;;;;21.50;18.75;;;;;;;;5162296;27;13584;-74
2022/04/20 23:35:51;;;;;;;;;22.25;16.50;;;;;;;;5162255;27;13502;-74
2022/04/20 23:38:16;;;;;;;;;22.75;17.50;;;;;;;;5160778;27;12528;-74
2022/04/20 23:40:42;;;;;;;;;20.50;17.25;;;;;;;;5162044;27;8805;-75
2022/04/20 23:43:07;;;;;;;;;20.50;16.00;;;;;;;;5161467;27;12992;-75
2022/04/20 23:45:35;;;;;;;;;20.25;16.75;;;;;;;;5160654;27;9158;-74
2022/04/20 23:48:01;;;;;;;;;16.75;16.75;;;;;;;;5162104;27;8803;-76
2022/04/20 23:50:26;;;;;;;;;18.50;18.50;;;;;;;;5161683;27;11480;-74
2022/04/20 23:52:52;;;;;;;;;19.50;16.00;;;;;;;;5161281;27;12784;-74
2022/04/20 23:55:18;;;;;;;;;18.75;18.00;;;;;;;;5161267;27;12910;-75
2022/04/20 23:57:44;;;;;;;;;17.00;16.00;;;;;;;;5161152;27;10635;-75
